Time;durP1;ratioP1;P1;durP2;ratioP2;P2;SDS_P1;SDS_P2;PMS_P1;PMS_P2;Temp;Humidity;BMP_temperature;BMP_pressure;BME280_temperature;BME280_humidity;BME280_pressure;Samples;Min_cycle;Max_cycle;Signal;HPM_P1;HPM_P2
2022/02/06 00:00:33;;;;;;;23.63;9.48;;;;;;;1.99;100.00;95552.81;5051265;28;20049;-49
2022/02/06 00:02:59;;;;;;;21.00;11.35;;;;;;;1.93;100.00;95558.63;5049155;28;20854;-50
2022/02/06 00:05:26;;;;;;;23.48;10.32;;;;;;;1.96;100.00;95563.41;5050738;28;20091;-47
2022/02/06 00:07:53;;;;;;;23.48;10.57;;;;;;;1.98;100.00;95561.50;5047119;28;20037;-49
2022/02/06 00:10:20;;;;;;;28.45;11.88;;;;;;;1.96;100.00;95568.56;5044298;28;20082;-48
2022/02/06 00:12:47;;;;;;;21.95;11.25;;;;;;;1.95;100.00;95572.09;5053049;28;20067;-51
2022/02/06 00:15:14;;;;;;;24.88;12.20;;;;;;;1.98;100.00;95582.06;5049410;28;20119;-49
2022/02/06 00:17:42;;;;;;;32.10;15.63;;;;;;;1.99;100.00;95588.78;5043283;28;20408;-50
2022/02/06 00:20:09;;;;;;;31.67;15.13;;;;;;;1.99;100.00;95580.28;5051404;28;20053;-54
2022/02/06 00:22:57;;;;;;;21.08;12.15;;;;;;;2.00;100.00;95590.41;5054066;28;20045;-50
2022/02/06 00:25:47;;;;;;;22.08;12.15;;;;;;;2.02;100.00;95587.69;5050164;28;20411;-51
2022/02/06 00:28:58;;;;;;;31.00;15.43;;;;;;;2.01;100.00;95592.00;5045810;28;20052;-49
2022/02/06 00:31:16;;;;;;;32.90;13.60;;;;;;;1.96;100.00;95586.53;5048504;28;20560;-49
2022/02/06 00:39:14;;;;;;;28.58;14.88;;;;;;;2.04;100.00;95588.34;5058466;28;20106;-49
2022/02/06 00:41:41;;;;;;;23.42;11.57;;;;;;;2.08;100.00;95582.69;5047510;28;20045;-51
2022/02/06 00:44:09;;;;;;;29.65;12.10;;;;;;;2.10;100.00;95585.91;5054511;28;20098;-48
2022/02/06 00:46:39;;;;;;;20.90;10.40;;;;;;;2.09;100.00;95579.19;5050377;28;20421;-49
2022/02/06 00:49:17;;;;;;;23.10;11.85;;;;;;;2.09;100.00;95579.19;5050342;28;20045;-49
2022/02/06 00:54:13;;;;;;;24.60;12.50;;;;;;;2.20;100.00;95590.13;5058140;28;20056;-51
2022/02/06 00:56:41;;;;;;;25.30;13.40;;;;;;;2.19;100.00;95578.22;5052911;28;20049;-50
2022/02/06 00:59:08;;;;;;;24.63;14.52;;;;;;;2.18;100.00;95576.59;5051851;28;20112;-51
2022/02/06 01:01:36;;;;;;;24.50;10.98;;;;;;;2.20;100.00;95577.28;5053291;28;20029;-51
2022/02/06 01:04:03;;;;;;;19.50;10.40;;;;;;;2.24;100.00;95576.78;5051501;28;20041;-51
2022/02/06 01:06:30;;;;;;;18.63;11.25;;;;;;;2.19;100.00;95578.22;5050857;28;20070;-48
2022/02/06 01:08:57;;;;;;;20.23;10.80;;;;;;;2.21;100.00;95571.16;5054144;28;20045;-49
2022/02/06 01:11:23;;;;;;;22.45;11.55;;;;;;;2.21;100.00;95571.16;5056442;28;20514;-48
2022/02/06 01:14:00;;;;;;;22.80;12.82;;;;;;;2.23;100.00;95569.22;5057849;28;20575;-47
2022/02/06 01:16:34;;;;;;;22.52;11.70;;;;;;;2.23;100.00;95569.22;5052659;28;20079;-46
2022/02/06 01:19:10;;;;;;;19.00;10.55;;;;;;;2.23;100.00;95570.03;5050001;28;20102;-50
2022/02/06 01:24:13;;;;;;;20.67;10.20;;;;;;;2.19;100.00;95567.94;5052478;28;20178;-46
2022/02/06 01:26:46;;;;;;;30.77;11.77;;;;;;;2.24;100.00;95565.69;5050354;28;20056;-47
2022/02/06 01:29:44;;;;;;;23.83;11.02;;;;;;;2.21;100.00;95571.16;5052767;28;20472;-48
2022/02/06 01:32:10;;;;;;;22.88;10.23;;;;;;;2.21;100.00;95555.72;5054511;28;20037;-48
2022/02/06 01:34:58;;;;;;;19.80;12.00;;;;;;;2.24;100.00;95568.28;5051475;28;20491;-49
2022/02/06 01:42:44;;;;;;;26.67;12.85;;;;;;;2.24;100.00;95575.97;5049686;28;20036;-48
2022/02/06 02:17:36;;;;;;;44.83;23.52;;;;;;;1.94;100.00;95560.22;5051936;28;20102;-48
2022/02/06 02:28:24;;;;;;;30.33;14.45;;;;;;;1.82;100.00;95561.47;5049753;28;20107;-47
2022/02/06 02:47:22;;;;;;;32.20;15.10;;;;;;;1.33;100.00;95568.13;5045476;28;20305;-50
2022/02/06 02:52:30;;;;;;;39.67;17.10;;;;;;;1.19;100.00;95571.25;5054620;28;20132;-51
2022/02/06 02:55:18;;;;;;;36.72;17.17;;;;;;;1.13;100.00;95577.81;5049663;28;20094;-52
2022/02/06 02:57:55;;;;;;;36.08;16.20;;;;;;;1.04;100.00;95577.91;5050152;28;20045;-48
2022/02/06 03:03:34;;;;;;;29.23;13.15;;;;;;;0.76;100.00;95570.41;5050555;28;20060;-51
2022/02/06 03:06:03;;;;;;;29.88;15.32;;;;;;;0.74;100.00;95582.59;5049092;28;20069;-49
2022/02/06 03:08:33;;;;;;;28.90;15.00;;;;;;;0.67;100.00;95576.44;5051114;28;20033;-48
2022/02/06 03:11:03;;;;;;;28.35;12.30;;;;;;;0.60;100.00;95575.44;5056125;28;20044;-49
2022/02/06 03:14:01;;;;;;;26.02;12.15;;;;;;;0.55;100.00;95578.44;5049316;28;20041;-49
2022/02/06 03:16:24;;;;;;;26.50;12.88;;;;;;;0.43;100.00;95577.88;5052743;28;20043;-48
2022/02/06 03:21:47;;;;;;;33.63;14.55;;;;;;;0.33;100.00;95570.28;5045998;28;20494;-47
2022/02/06 03:26:45;;;;;;;26.77;15.20;;;;;;;0.17;100.00;95586.31;5053049;28;20102;-47
2022/02/06 03:29:13;;;;;;;31.23;15.40;;;;;;;0.12;100.00;95582.59;5049362;28;20045;-50
2022/02/06 03:31:40;;;;;;;32.58;16.52;;;;;;;0.10;100.00;95580.19;5041181;28;20041;-52
2022/02/06 03:34:07;;;;;;;30.65;16.42;;;;;;;0.05;100.00;95577.25;5048968;28;20061;-48
2022/02/06 03:36:34;;;;;;;26.67;14.68;;;;;;;0.06;100.00;95584.00;5052843;28;20061;-48
2022/02/06 03:39:02;;;;;;;33.30;17.20;;;;;;;0.03;100.00;95589.41;5053609;28;20041;-48
2022/02/06 03:41:30;;;;;;;34.00;15.38;;;;;;;-0.03;100.00;95584.88;5050418;28;20036;-51
2022/02/06 03:44:05;;;;;;;40.53;17.55;;;;;;;-0.04;100.00;95594.34;5049170;28;20069;-49
2022/02/06 03:46:38;;;;;;;33.40;18.20;;;;;;;-0.08;100.00;95592.19;5056030;28;20564;-49
2022/02/06 03:49:11;;;;;;;34.85;16.83;;;;;;;-0.12;100.00;95596.00;5046877;28;20056;-51
2022/02/06 03:51:38;;;;;;;35.38;17.88;;;;;;;-0.29;100.00;95600.13;5049421;28;20098;-50
2022/02/06 03:54:08;;;;;;;49.17;19.20;;;;;;;-0.35;100.00;95586.16;5051417;28;20088;-48
2022/02/06 03:56:36;;;;;;;41.40;20.70;;;;;;;-0.29;100.00;95590.72;5052767;28;20414;-51
2022/02/06 03:59:04;;;;;;;42.58;20.33;;;;;;;-0.31;100.00;95587.47;5052772;28;20489;-50
2022/02/06 04:01:31;;;;;;;44.53;20.95;;;;;;;-0.30;100.00;95591.66;5054865;28;20048;-52
2022/02/06 04:03:57;;;;;;;38.33;18.52;;;;;;;-0.26;100.00;95590.41;5051886;28;20506;-52
2022/02/06 04:06:27;;;;;;;37.55;19.33;;;;;;;-0.25;100.00;95584.34;5054736;28;20072;-49
2022/02/06 04:08:56;;;;;;;30.08;15.52;;;;;;;-0.23;100.00;95594.47;5056350;28;20056;-48
2022/02/06 04:11:34;;;;;;;39.47;18.23;;;;;;;-0.17;100.00;95587.94;5054775;28;20045;-46
2022/02/06 04:14:09;;;;;;;33.22;15.70;;;;;;;-0.01;100.00;95593.22;5053315;28;20405;-50
2022/02/06 04:16:48;;;;;;;33.85;13.43;;;;;;;0.10;100.00;95595.56;5051365;28;20049;-48
2022/02/06 04:19:21;;;;;;;31.38;12.65;;;;;;;0.17;100.00;95591.44;5052545;28;20060;-50
2022/02/06 04:21:48;;;;;;;31.48;14.30;;;;;;;0.29;100.00;95588.66;5054071;28;20063;-51
2022/02/06 04:24:15;;;;;;;29.00;13.18;;;;;;;0.37;100.00;95586.16;5057016;28;20045;-48
2022/02/06 04:26:42;;;;;;;29.80;14.45;;;;;;;0.40;100.00;95585.88;5053668;28;20650;-48
2022/02/06 04:29:09;;;;;;;28.75;14.38;;;;;;;0.42;100.00;95594.22;5051413;28;20071;-48
2022/02/06 04:31:38;;;;;;;30.17;14.20;;;;;;;0.46;100.00;95605.78;5059075;28;20036;-47
2022/02/06 04:34:06;;;;;;;27.10;13.85;;;;;;;0.45;100.00;95609.31;5056288;28;20426;-48
2022/02/06 04:36:42;;;;;;;33.22;16.23;;;;;;;0.41;100.00;95607.97;5055984;28;20098;-48
2022/02/06 04:42:10;;;;;;;34.20;15.43;;;;;;;0.41;100.00;95614.88;5060971;28;20047;-51
2022/02/06 05:29:27;;;;;;;57.63;22.25;;;;;;;-0.80;100.00;95635.56;5051881;28;20195;-48
2022/02/06 05:31:58;;;;;;;46.92;20.38;;;;;;;-0.71;100.00;95632.16;5053733;28;20141;-47
2022/02/06 05:34:24;;;;;;;44.13;19.63;;;;;;;-0.71;100.00;95627.03;5048980;28;20055;-50
2022/02/06 05:36:51;;;;;;;45.13;22.48;;;;;;;-0.77;100.00;95623.28;5055173;28;21157;-47
2022/02/06 05:39:18;;;;;;;32.88;17.75;;;;;;;-0.62;100.00;95638.97;5056161;28;20044;-46
2022/02/06 05:41:45;;;;;;;34.28;16.98;;;;;;;-0.60;100.00;95639.63;5049175;28;20083;-50
2022/02/06 05:44:11;;;;;;;35.72;16.58;;;;;;;-0.63;100.00;95639.09;5058599;28;20041;-45
2022/02/06 05:46:38;;;;;;;42.75;19.10;;;;;;;-0.64;100.00;95643.44;5057084;28;20074;-50
2022/02/06 05:49:09;;;;;;;31.45;17.15;;;;;;;-0.66;100.00;95644.53;5059700;28;20072;-47
2022/02/06 05:51:35;;;;;;;33.10;17.90;;;;;;;-0.72;100.00;95640.78;5057326;28;20098;-48
2022/02/06 05:54:02;;;;;;;37.60;19.00;;;;;;;-0.74;100.00;95646.97;5058945;28;20502;-51
2022/02/06 05:56:29;;;;;;;35.08;18.80;;;;;;;-0.69;100.00;95640.47;5053939;28;20052;-49
2022/02/06 05:58:57;;;;;;;44.67;20.00;;;;;;;-0.69;100.00;95640.47;5053666;28;20060;-47
2022/02/06 06:01:24;;;;;;;51.00;23.50;;;;;;;-0.66;100.00;95650.44;5052503;28;20052;-48
2022/02/06 06:03:51;;;;;;;50.58;24.27;;;;;;;-0.61;100.00;95658.50;5058070;28;20041;-47
2022/02/06 06:06:17;;;;;;;50.50;21.98;;;;;;;-0.60;100.00;95654.97;5058995;28;20098;-47
2022/02/06 06:08:44;;;;;;;49.05;23.40;;;;;;;-0.60;100.00;95660.09;5053352;28;20104;-50
2022/02/06 06:11:11;;;;;;;54.70;22.02;;;;;;;-0.63;100.00;95660.41;5059595;28;20119;-46
2022/02/06 06:13:38;;;;;;;51.85;25.65;;;;;;;-0.71;100.00;95667.97;5055974;28;20459;-49
2022/02/06 06:16:07;;;;;;;48.90;24.17;;;;;;;-0.72;100.00;95666.38;5055399;28;20123;-48
2022/02/06 06:18:35;;;;;;;38.10;20.45;;;;;;;-0.78;100.00;95656.69;5053145;28;20076;-47
2022/02/06 06:21:03;;;;;;;37.50;18.58;;;;;;;-0.70;100.00;95669.59;5057357;28;20083;-50
2022/02/06 06:23:30;;;;;;;37.75;18.10;;;;;;;-0.62;100.00;95666.31;5056104;28;20044;-52
2022/02/06 06:25:57;;;;;;;45.67;20.02;;;;;;;-0.55;100.00;95676.81;5055709;28;20055;-47
2022/02/06 06:28:23;;;;;;;43.83;21.55;;;;;;;-0.47;100.00;95674.34;5058880;28;20407;-46
2022/02/06 06:30:50;;;;;;;48.38;24.92;;;;;;;-0.35;100.00;95678.31;5055947;28;20041;-50
2022/02/06 06:33:17;;;;;;;69.57;32.25;;;;;;;-0.23;100.00;95677.19;5054474;28;20103;-50
2022/02/06 06:35:53;;;;;;;155.32;49.35;;;;;;;-0.10;100.00;95686.28;5056967;28;20068;-48
2022/02/06 06:38:21;;;;;;;108.97;37.70;;;;;;;-0.04;100.00;95680.56;5052433;28;20045;-46
2022/02/06 06:40:47;;;;;;;86.40;32.30;;;;;;;-0.02;100.00;95663.31;5055415;28;20032;-47
2022/02/06 06:43:14;;;;;;;66.57;28.20;;;;;;;0.13;100.00;95682.38;5055138;28;20040;-47
2022/02/06 06:45:41;;;;;;;56.75;27.02;;;;;;;0.28;100.00;95679.31;5054568;28;20044;-48
2022/02/06 06:48:08;;;;;;;76.43;36.42;;;;;;;0.34;100.00;95681.28;5055272;28;20064;-52
2022/02/06 06:50:35;;;;;;;98.60;41.53;;;;;;;0.32;100.00;95670.38;5054741;28;20049;-47
2022/02/06 06:53:04;;;;;;;95.32;40.25;;;;;;;0.45;100.00;95686.19;5057315;28;20051;-46
2022/02/06 06:55:33;;;;;;;73.28;32.78;;;;;;;0.55;100.00;95689.47;5050454;28;20183;-47
2022/02/06 06:58:11;;;;;;;65.40;29.75;;;;;;;0.65;100.00;95686.00;5055422;28;20036;-50
2022/02/06 07:00:54;;;;;;;48.72;21.52;;;;;;;0.76;100.00;95684.03;5053330;28;20506;-53
2022/02/06 07:03:22;;;;;;;41.70;22.58;;;;;;;0.85;100.00;95692.59;5054355;28;20060;-53
2022/02/06 07:05:49;;;;;;;43.20;19.20;;;;;;;0.99;100.00;95683.56;5055440;28;20082;-53
2022/02/06 07:08:17;;;;;;;35.80;15.23;;;;;;;1.12;100.00;95694.22;5054082;28;20053;-51
2022/02/06 07:10:44;;;;;;;43.15;20.00;;;;;;;1.16;100.00;95689.59;5057367;28;20052;-52
2022/02/06 07:13:13;;;;;;;38.15;16.13;;;;;;;1.30;100.00;95685.69;5054364;28;20048;-50
2022/02/06 07:15:40;;;;;;;37.95;18.98;;;;;;;1.40;100.00;95685.56;5053635;28;20099;-51
2022/02/06 07:18:07;;;;;;;38.40;19.70;;;;;;;1.51;100.00;95693.81;5050575;28;20068;-50
2022/02/06 07:20:36;;;;;;;37.80;16.88;;;;;;;1.54;100.00;95702.97;5047886;28;20044;-50
2022/02/06 07:23:05;;;;;;;23.35;12.68;;;;;;;1.39;100.00;95699.34;5055995;28;20047;-47
2022/02/06 07:25:33;;;;;;;27.65;14.40;;;;;;;1.54;100.00;95702.97;5051666;28;20040;-50
2022/02/06 07:28:02;;;;;;;24.80;12.68;;;;;;;1.69;100.00;95700.59;5058066;28;20076;-50
2022/02/06 07:30:28;;;;;;;36.83;15.88;;;;;;;1.73;100.00;95696.78;5053936;28;20048;-48
2022/02/06 07:32:55;;;;;;;33.10;14.70;;;;;;;1.78;100.00;95701.44;5054649;28;20049;-46
2022/02/06 07:35:22;;;;;;;30.55;16.35;;;;;;;1.86;100.00;95701.50;5053591;28;20062;-48
2022/02/06 07:37:55;;;;;;;24.98;12.88;;;;;;;1.93;100.00;95697.34;5055387;28;20064;-49
2022/02/06 07:40:24;;;;;;;26.35;12.82;;;;;;;1.97;100.00;95701.22;5054536;28;20048;-53
2022/02/06 07:42:51;;;;;;;36.20;16.02;;;;;;;2.02;100.00;95711.03;5048619;28;20037;-51
2022/02/06 07:45:24;;;;;;;33.47;16.67;;;;;;;2.15;100.00;95715.72;5052007;28;20045;-52
2022/02/06 07:47:51;;;;;;;38.03;18.70;;;;;;;2.32;100.00;95716.56;5055512;28;20052;-48
2022/02/06 07:50:18;;;;;;;30.05;15.43;;;;;;;2.43;100.00;95699.06;5052085;28;20044;-48
2022/02/06 07:52:45;;;;;;;36.55;16.90;;;;;;;2.64;100.00;95706.31;5051316;28;20106;-53
2022/02/06 07:55:12;;;;;;;27.55;14.38;;;;;;;2.67;100.00;95702.63;5053025;28;20118;-52
2022/02/06 07:57:38;;;;;;;26.70;13.98;;;;;;;2.77;100.00;95710.97;5054028;28;20099;-51
2022/02/06 08:00:07;;;;;;;29.17;13.75;;;;;;;2.79;100.00;95709.06;5053499;28;20129;-52
2022/02/06 08:02:37;;;;;;;28.20;13.13;;;;;;;2.78;100.00;95702.31;5050756;28;20501;-49
2022/02/06 08:05:04;;;;;;;23.92;12.35;;;;;;;2.87;100.00;95721.91;5052424;28;20045;-48
2022/02/06 08:07:32;;;;;;;27.02;12.55;;;;;;;3.00;100.00;95715.50;5053584;28;20040;-52
2022/02/06 08:10:01;;;;;;;20.25;9.95;;;;;;;3.07;100.00;95711.31;5051437;28;20044;-49
2022/02/06 08:12:31;;;;;;;30.63;13.10;;;;;;;3.12;100.00;95710.84;5046841;28;20040;-47
2022/02/06 08:15:03;;;;;;;24.67;12.20;;;;;;;3.28;100.00;95712.56;5052424;28;20502;-48
2022/02/06 08:17:31;;;;;;;23.00;11.25;;;;;;;3.31;99.08;95712.25;5046160;28;20049;-48
2022/02/06 08:20:00;;;;;;;13.80;7.15;;;;;;;3.23;96.97;95707.91;5044477;28;20057;-49
2022/02/06 08:22:27;;;;;;;18.65;9.80;;;;;;;3.31;94.61;95707.09;5048425;28;20052;-49
2022/02/06 08:24:55;;;;;;;16.58;8.35;;;;;;;3.37;94.17;95711.59;5045702;28;20037;-48
2022/02/06 08:27:24;;;;;;;28.80;11.68;;;;;;;3.54;94.30;95708.00;5049253;28;20052;-48
2022/02/06 08:29:51;;;;;;;18.55;10.13;;;;;;;3.65;92.25;95714.56;5046885;28;20136;-50
2022/02/06 08:32:20;;;;;;;19.40;9.10;;;;;;;3.78;91.43;95703.72;5053182;28;20482;-50
2022/02/06 08:34:48;;;;;;;25.17;12.93;;;;;;;3.72;92.36;95704.41;5054123;28;20056;-52
2022/02/06 08:37:15;;;;;;;18.30;9.43;;;;;;;3.81;90.90;95703.41;5051322;28;20060;-53
2022/02/06 08:39:43;;;;;;;18.80;9.63;;;;;;;3.69;88.54;95695.25;5050819;28;20044;-49
2022/02/06 08:42:11;;;;;;;24.60;11.50;;;;;;;3.77;89.50;95699.56;5050257;28;20057;-54
2022/02/06 08:44:41;;;;;;;22.48;11.02;;;;;;;3.81;89.48;95704.22;5047398;28;20044;-53
2022/02/06 08:47:10;;;;;;;17.80;9.70;;;;;;;3.85;88.82;95704.66;5047450;28;20037;-50
2022/02/06 08:49:38;;;;;;;30.42;12.77;;;;;;;3.80;89.04;95706.97;5051456;28;20053;-51
2022/02/06 08:52:06;;;;;;;15.75;7.22;;;;;;;3.81;87.74;95708.56;5050943;28;20052;-49
2022/02/06 08:54:35;;;;;;;22.50;9.50;;;;;;;4.01;88.07;95709.75;5048979;28;20044;-49
2022/02/06 08:57:23;;;;;;;16.50;9.15;;;;;;;4.00;87.27;95703.00;5049104;28;20053;-51
2022/02/06 08:59:50;;;;;;;16.65;9.13;;;;;;;4.08;87.10;95703.94;5047761;28;20052;-48
2022/02/06 09:02:18;;;;;;;22.08;10.80;;;;;;;4.12;86.26;95694.91;5045314;28;20067;-51
2022/02/06 09:04:45;;;;;;;26.70;11.10;;;;;;;4.29;86.40;95700.78;5046038;28;20037;-50
2022/02/06 09:07:12;;;;;;;20.65;9.30;;;;;;;4.37;85.07;95703.28;5052729;28;20049;-52
2022/02/06 09:09:44;;;;;;;19.85;9.48;;;;;;;4.32;83.58;95703.00;5049093;28;20090;-51
2022/02/06 09:12:11;;;;;;;21.30;9.32;;;;;;;4.17;83.19;95702.94;5055751;28;20091;-50
2022/02/06 09:14:38;;;;;;;23.25;10.85;;;;;;;4.25;83.69;95690.00;5057618;28;20057;-52
2022/02/06 09:17:06;;;;;;;20.65;9.88;;;;;;;4.31;80.54;95699.63;5057865;28;20052;-49
2022/02/06 09:19:35;;;;;;;25.42;12.18;;;;;;;4.33;79.88;95697.69;5052911;28;20506;-49
2022/02/06 09:22:02;;;;;;;19.42;8.63;;;;;;;4.49;79.11;95706.31;5054268;28;20106;-54
2022/02/06 09:24:29;;;;;;;14.98;6.70;;;;;;;4.77;75.83;95702.22;5052600;28;20467;-48
2022/02/06 09:26:56;;;;;;;17.10;7.53;;;;;;;4.89;75.35;95706.97;5050369;28;21471;-51
2022/02/06 09:29:23;;;;;;;20.02;9.07;;;;;;;5.04;75.12;95689.75;5051884;28;20134;-48
2022/02/06 09:31:51;;;;;;;14.40;6.82;;;;;;;5.00;72.14;95691.06;5048599;28;20787;-49
2022/02/06 09:36:47;;;;;;;12.57;5.93;;;;;;;5.01;71.98;95700.44;5048920;28;20048;-50
2022/02/06 09:39:15;;;;;;;15.85;7.45;;;;;;;4.71;71.08;95648.72;5056318;28;20078;-53
2022/02/06 09:41:44;;;;;;;14.00;6.78;;;;;;;5.09;69.69;95695.19;5052534;28;20041;-53
2022/02/06 09:44:15;;;;;;;14.98;7.57;;;;;;;5.29;71.01;95690.31;5060798;28;20037;-54
2022/02/06 09:46:50;;;;;;;15.80;7.68;;;;;;;5.46;68.51;95685.00;5054080;28;20465;-54
2022/02/06 09:49:21;;;;;;;11.77;6.75;;;;;;;5.60;66.77;95670.47;5052387;28;20044;-49
2022/02/06 09:51:48;;;;;;;9.65;5.00;;;;;;;5.50;64.56;95674.13;5049971;28;20583;-50
2022/02/06 09:54:18;;;;;;;16.33;8.30;;;;;;;5.64;66.53;95677.69;5050726;28;20033;-49
2022/02/06 09:56:49;;;;;;;17.65;7.93;;;;;;;5.77;66.50;95669.31;5050975;28;20080;-49
2022/02/06 09:59:20;;;;;;;14.50;7.47;;;;;;;5.88;64.43;95661.06;5051091;28;20099;-50
2022/02/06 10:01:53;;;;;;;12.07;6.40;;;;;;;5.99;63.28;95651.28;5049784;28;20545;-49
2022/02/06 10:04:25;;;;;;;10.68;5.50;;;;;;;6.31;61.52;95660.41;5046317;28;20045;-48
2022/02/06 10:07:03;;;;;;;7.35;5.28;;;;;;;6.36;58.38;95667.63;5048010;28;20083;-46
2022/02/06 10:09:37;;;;;;;8.98;4.60;;;;;;;6.31;56.30;95666.34;5054152;28;20048;-49
2022/02/06 10:12:05;;;;;;;11.80;6.22;;;;;;;6.40;56.31;95663.66;5057000;28;20044;-52
2022/02/06 10:14:33;;;;;;;14.55;7.60;;;;;;;6.61;59.06;95655.91;5051885;28;20056;-49
2022/02/06 10:17:00;;;;;;;11.95;6.20;;;;;;;6.78;56.85;95645.28;5051051;28;20106;-48
2022/02/06 10:19:28;;;;;;;11.65;5.72;;;;;;;6.83;56.72;95648.13;5045236;28;20048;-51
2022/02/06 10:21:55;;;;;;;11.02;5.53;;;;;;;6.91;57.46;95634.22;5051978;28;20071;-50
2022/02/06 10:24:32;;;;;;;13.02;6.90;;;;;;;6.92;58.54;95641.81;5052783;28;20924;-48
2022/02/06 10:29:52;;;;;;;12.32;5.85;;;;;;;6.98;55.21;95635.88;5048162;28;20053;-52
2022/02/06 10:32:19;;;;;;;14.00;6.07;;;;;;;6.98;53.91;95638.47;5049716;28;20044;-51
2022/02/06 10:34:47;;;;;;;11.07;5.80;;;;;;;7.19;54.83;95626.47;5046026;28;20032;-52
2022/02/06 10:37:16;;;;;;;11.80;6.45;;;;;;;7.44;54.08;95626.81;5048218;28;20106;-52
2022/02/06 10:39:51;;;;;;;10.13;5.13;;;;;;;7.75;55.22;95615.97;5047038;28;20041;-51
2022/02/06 10:42:26;;;;;;;9.30;5.93;;;;;;;7.96;52.23;95607.28;5050637;28;20518;-51
2022/02/06 10:45:12;;;;;;;11.18;4.97;;;;;;;8.06;52.38;95601.72;5049314;28;20041;-48
2022/02/06 10:47:40;;;;;;;8.63;4.78;;;;;;;8.40;50.98;95607.78;5046077;28;20048;-49
2022/02/06 10:50:13;;;;;;;10.93;5.60;;;;;;;8.71;50.15;95598.63;5045726;28;20048;-51
2022/02/06 10:52:40;;;;;;;14.23;5.68;;;;;;;8.99;49.11;95586.22;5046124;28;20053;-49
2022/02/06 10:55:09;;;;;;;11.88;5.38;;;;;;;9.10;48.74;95592.59;5047987;28;20045;-49
2022/02/06 10:57:37;;;;;;;10.65;5.65;;;;;;;9.16;46.44;95581.41;5048337;28;20048;-49
2022/02/06 11:00:07;;;;;;;8.82;5.00;;;;;;;9.26;46.63;95586.19;5050010;28;20041;-54
2022/02/06 11:02:45;;;;;;;9.18;4.30;;;;;;;9.01;46.71;95572.25;5054518;28;20044;-50
2022/02/06 11:05:20;;;;;;;9.60;4.72;;;;;;;8.99;46.54;95581.03;5052785;28;20048;-51
2022/02/06 11:07:55;;;;;;;8.85;3.58;;;;;;;8.91;45.50;95573.47;5052065;28;20055;-52
2022/02/06 11:10:25;;;;;;;9.45;4.10;;;;;;;8.84;45.85;95572.66;5048659;28;20063;-48
2022/02/06 11:12:53;;;;;;;6.03;2.92;;;;;;;9.04;45.50;95566.63;5047124;28;20476;-48
2022/02/06 11:15:27;;;;;;;8.23;4.03;;;;;;;9.15;44.47;95553.03;5049436;28;20037;-48
2022/02/06 11:18:03;;;;;;;;;;;;;;;9.12;44.73;95550.84;5047373;28;20044;-49
2022/02/06 11:20:30;;;;;;;6.95;3.00;;;;;;;9.31;43.05;95541.38;5047641;28;19939;-47
2022/02/06 11:22:58;;;;;;;6.38;3.42;;;;;;;9.49;42.43;95540.69;5053941;28;20106;-50
2022/02/06 11:25:28;;;;;;;7.35;2.90;;;;;;;9.56;40.62;95533.66;5047497;28;20518;-50
2022/02/06 11:28:00;;;;;;;5.82;2.83;;;;;;;9.57;39.31;95536.06;5046612;28;20045;-52
2022/02/06 11:30:28;;;;;;;5.47;2.90;;;;;;;9.57;40.86;95524.88;5068859;28;20051;-49
2022/02/06 11:32:55;;;;;;;12.82;3.30;;;;;;;9.67;39.63;95524.41;5047002;28;20103;-51
2022/02/06 11:35:26;;;;;;;5.80;2.38;;;;;;;9.83;38.62;95520.53;5053054;28;20056;-48
2022/02/06 11:44:19;;;;;;;4.93;2.53;;;;;;;9.70;39.25;95517.00;5050122;28;20041;-51
2022/02/06 11:47:01;;;;;;;6.97;3.15;;;;;;;9.79;38.11;95516.78;5049623;28;20067;-48
2022/02/06 11:49:28;;;;;;;25.27;11.65;;;;;;;10.40;38.48;95504.97;5057805;28;20044;-51
2022/02/06 11:51:57;;;;;;;6.05;2.95;;;;;;;10.54;37.68;95508.28;5048794;28;20130;-47
2022/02/06 11:54:27;;;;;;;6.45;3.17;;;;;;;11.02;38.19;95499.78;5045178;28;20052;-49
2022/02/06 11:57:28;;;;;;;8.75;4.22;;;;;;;10.72;42.64;95495.28;5046965;28;20049;-48
2022/02/06 12:00:04;;;;;;;18.08;8.95;;;;;;;10.65;46.04;95495.34;5006060;28;20084;-49
2022/02/06 12:02:45;;;;;;;24.67;9.48;;;;;;;10.57;47.30;95477.41;5048222;28;20044;-53
2022/02/06 12:05:16;;;;;;;29.67;10.77;;;;;;;11.04;47.90;95482.94;5050314;28;20036;-52
2022/02/06 12:07:52;;;;;;;37.97;13.75;;;;;;;11.59;47.60;95474.22;5055475;28;20056;-51
2022/02/06 12:10:21;;;;;;;24.00;10.50;;;;;;;12.13;45.81;95463.06;5050262;28;20447;-51
2022/02/06 12:13:23;;;;;;;17.20;8.40;;;;;;;12.89;43.27;95465.81;5051006;28;20580;-53
2022/02/06 12:15:58;;;;;;;17.55;9.00;;;;;;;13.35;42.73;95464.16;5051331;28;20033;-51
2022/02/06 12:18:29;;;;;;;;;;;;;;;13.63;42.68;95459.94;5043777;28;20048;-52
2022/02/06 12:21:20;;;;;;;25.88;12.27;;;;;;;13.74;42.10;95446.03;5046541;28;19924;-51
2022/02/06 12:23:57;;;;;;;33.00;16.40;;;;;;;14.17;41.09;95459.56;5047099;28;20040;-47
2022/02/06 12:26:30;;;;;;;33.17;12.95;;;;;;;14.42;40.79;95452.13;5045287;28;20048;-49
2022/02/06 12:28:59;;;;;;;29.92;12.50;;;;;;;14.50;39.87;95453.53;5049206;28;20045;-49
2022/02/06 12:31:33;;;;;;;22.67;12.20;;;;;;;14.79;39.09;95450.81;5044586;28;20083;-48
2022/02/06 12:39:27;;;;;;;15.40;8.00;;;;;;;15.23;37.69;95435.09;5048829;28;21889;-51
2022/02/06 12:41:56;;;;;;;15.07;6.88;;;;;;;15.01;36.98;95393.91;5045172;28;20113;-49
2022/02/06 12:44:25;;;;;;;19.90;11.45;;;;;;;15.35;35.99;95443.63;5049861;28;20048;-50
2022/02/06 12:46:55;;;;;;;14.77;8.77;;;;;;;15.48;36.48;95437.19;5052122;28;20048;-50
2022/02/06 12:49:34;;;;;;;14.57;9.25;;;;;;;15.66;35.26;95428.19;5052340;28;20063;-49
2022/02/06 12:52:03;;;;;;;16.25;8.35;;;;;;;15.93;34.17;95443.19;5053331;28;20503;-49
2022/02/06 12:54:30;;;;;;;33.90;16.60;;;;;;;15.49;33.76;95426.44;5047313;28;20045;-51
2022/02/06 12:56:59;;;;;;;41.38;18.05;;;;;;;15.79;33.04;95433.09;5049204;28;20036;-48
2022/02/06 12:59:30;;;;;;;33.17;17.08;;;;;;;16.16;32.22;95416.56;5051322;28;20399;-47
2022/02/06 13:01:58;;;;;;;15.48;8.50;;;;;;;16.44;32.82;95412.06;5050512;28;20133;-51
2022/02/06 13:04:29;;;;;;;20.20;8.43;;;;;;;16.93;33.70;95424.19;5049009;28;20110;-48
2022/02/06 13:07:02;;;;;;;19.15;8.90;;;;;;;16.96;32.55;95413.13;5052876;28;20537;-50
2022/02/06 13:09:40;;;;;;;11.82;6.55;;;;;;;17.09;32.29;95412.66;5050867;28;20037;-51
2022/02/06 13:12:25;;;;;;;8.75;5.47;;;;;;;17.17;32.40;95411.38;5051184;28;20055;-52
2022/02/06 13:25:33;;;;;;;11.95;5.97;;;;;;;17.82;30.05;95384.66;5056796;28;20112;-49
2022/02/06 13:34:18;;;;;;;13.30;6.20;;;;;;;18.17;29.70;95388.34;5050712;28;20045;-51
2022/02/06 13:39:04;;;;;;;9.80;6.10;;;;;;;18.35;27.99;95369.38;5049234;28;20048;-48
2022/02/06 13:41:32;;;;;;;19.20;11.05;;;;;;;18.27;27.20;95378.59;5048261;28;20106;-50
2022/02/06 13:44:01;;;;;;;17.63;10.13;;;;;;;18.49;27.87;95359.84;5052520;28;20036;-48
2022/02/06 13:46:32;;;;;;;9.38;5.03;;;;;;;18.68;27.63;95361.91;5054498;28;20772;-47
2022/02/06 13:49:00;;;;;;;9.65;6.18;;;;;;;18.88;27.60;95356.56;5051419;28;20044;-51
2022/02/06 13:51:32;;;;;;;20.15;11.25;;;;;;;18.93;26.16;95357.63;5050093;28;20052;-46
2022/02/06 13:54:05;;;;;;;14.10;7.63;;;;;;;19.20;26.29;95358.00;5049699;28;20033;-49
2022/02/06 13:56:34;;;;;;;38.72;16.60;;;;;;;19.08;25.68;95347.75;5048011;28;20056;-48
2022/02/06 13:59:05;;;;;;;13.82;7.30;;;;;;;19.37;26.49;95343.66;5052611;28;20407;-50
2022/02/06 14:01:40;;;;;;;6.60;4.50;;;;;;;19.49;26.79;95338.81;5048337;28;20041;-48
2022/02/06 14:04:18;;;;;;;10.30;5.78;;;;;;;19.65;27.64;95339.50;5049598;28;20122;-49
2022/02/06 14:06:52;;;;;;;17.20;8.60;;;;;;;19.81;26.99;95334.94;5048826;28;20044;-47
2022/02/06 14:09:30;;;;;;;12.68;7.45;;;;;;;19.91;26.99;95339.34;5045906;28;20052;-48
2022/02/06 14:12:01;;;;;;;13.40;8.20;;;;;;;20.08;26.77;95328.34;5049631;28;20122;-51
2022/02/06 14:14:30;;;;;;;30.80;17.60;;;;;;;20.11;25.82;95330.44;5052468;28;20075;-51
2022/02/06 14:17:31;;;;;;;21.33;12.45;;;;;;;20.11;25.82;95333.06;5046931;28;20134;-51
2022/02/06 14:20:07;;;;;;;12.93;7.93;;;;;;;20.36;25.15;95324.09;5048390;28;20045;-50
2022/02/06 14:22:43;;;;;;;15.00;7.57;;;;;;;20.21;24.87;95322.41;5049819;28;20041;-50
2022/02/06 14:25:12;;;;;;;16.90;11.18;;;;;;;20.14;25.47;95321.94;5053780;28;20040;-51